createdAt,value
2023-04-17T00:00:25.172Z,14.90
2023-04-17T00:02:57.728Z,12.50
2023-04-17T00:05:28.172Z,13.93
2023-04-17T00:07:57.962Z,12.88
2023-04-17T00:10:27.754Z,13.95
2023-04-17T00:12:57.549Z,11.80
2023-04-17T00:15:27.446Z,10.43
2023-04-17T00:17:59.845Z,11.88
2023-04-17T00:20:29.676Z,12.20
2023-04-17T00:22:59.465Z,10.38
2023-04-17T00:25:29.292Z,13.80
2023-04-17T00:27:59.033Z,13.20
2023-04-17T00:30:28.823Z,12.00
2023-04-17T00:33:01.463Z,13.27
2023-04-17T00:35:31.285Z,12.77
2023-04-17T00:38:01.106Z,16.17
2023-04-17T00:40:31.039Z,13.20
2023-04-17T00:43:03.310Z,11.95
2023-04-17T00:45:33.821Z,11.13
2023-04-17T00:48:07.811Z,9.70
2023-04-17T00:50:37.852Z,13.02
2023-04-17T00:53:07.778Z,15.20
2023-04-17T00:55:38.384Z,15.25
2023-04-17T00:58:08.762Z,14.55
2023-04-17T01:00:38.522Z,17.65
2023-04-17T01:03:11.205Z,15.20
2023-04-17T01:05:41.222Z,16.95
2023-04-17T01:08:11.030Z,16.85
2023-04-17T01:10:40.836Z,14.15
2023-04-17T01:13:11.768Z,16.35
2023-04-17T01:15:43.917Z,18.90
2023-04-17T01:18:16.710Z,12.88
2023-04-17T01:20:46.928Z,17.92
2023-04-17T01:23:18.214Z,15.77
2023-04-17T01:25:51.448Z,12.93
2023-04-17T01:28:21.720Z,13.32
2023-04-17T01:30:51.533Z,15.48
2023-04-17T01:33:21.304Z,14.27
2023-04-17T01:35:53.886Z,12.95
2023-04-17T01:38:23.719Z,16.73
2023-04-17T01:40:56.433Z,14.68
2023-04-17T01:43:26.204Z,25.17
2023-04-17T01:45:56.401Z,16.30
2023-04-17T01:48:26.193Z,14.82
2023-04-17T01:50:56.001Z,14.60
2023-04-17T01:53:25.789Z,14.02
2023-04-17T01:55:58.440Z,14.88
2023-04-17T01:58:28.231Z,14.35
2023-04-17T02:00:57.951Z,17.00
2023-04-17T02:03:27.985Z,22.65
2023-04-17T02:05:57.950Z,15.15
2023-04-17T02:08:27.693Z,16.10
2023-04-17T02:11:00.036Z,14.00
2023-04-17T02:13:30.217Z,15.57
2023-04-17T02:15:59.910Z,15.55
2023-04-17T02:18:32.044Z,16.80
2023-04-17T02:21:03.311Z,17.55
2023-04-17T02:23:33.002Z,19.33
2023-04-17T02:26:05.327Z,19.33
2023-04-17T02:28:35.115Z,19.02
2023-04-17T02:31:05.162Z,15.45
2023-04-17T02:33:34.858Z,13.88
2023-04-17T02:36:04.548Z,15.07
2023-04-17T02:38:40.412Z,14.35
2023-04-17T02:41:13.074Z,17.80
2023-04-17T02:43:43.393Z,17.63
2023-04-17T02:46:13.297Z,16.38
2023-04-17T02:48:42.992Z,16.25
2023-04-17T02:51:12.689Z,16.90
2023-04-17T02:53:42.513Z,16.25
2023-04-17T02:56:14.786Z,16.85
2023-04-17T02:58:45.704Z,17.55
2023-04-17T03:01:15.582Z,18.90
2023-04-17T03:03:47.960Z,27.52
2023-04-17T03:06:18.255Z,20.48
2023-04-17T03:08:47.924Z,20.90
2023-04-17T03:11:20.506Z,21.92
2023-04-17T03:13:50.191Z,19.52
2023-04-17T03:16:19.940Z,16.98
2023-04-17T03:18:49.779Z,18.25
2023-04-17T03:21:19.491Z,19.33
2023-04-17T03:23:49.207Z,18.13
2023-04-17T03:26:21.905Z,17.30
2023-04-17T03:28:52.373Z,17.15
2023-04-17T03:31:24.527Z,18.95
2023-04-17T03:33:54.550Z,18.80
2023-04-17T03:36:24.915Z,15.38
2023-04-17T03:38:56.056Z,16.65
2023-04-17T03:41:28.362Z,21.90
2023-04-17T03:43:58.247Z,19.25
2023-04-17T03:46:28.023Z,19.70
2023-04-17T03:48:57.723Z,20.30
2023-04-17T03:51:27.612Z,20.85
2023-04-17T03:54:02.526Z,17.00
2023-04-17T03:56:35.492Z,20.00
2023-04-17T03:59:06.212Z,18.15
2023-04-17T04:01:44.697Z,22.05
2023-04-17T04:04:25.083Z,15.18
2023-04-17T04:07:01.752Z,18.38
2023-04-17T04:09:32.229Z,20.58
2023-04-17T04:12:05.260Z,20.60
2023-04-17T04:14:42.048Z,19.45
2023-04-17T04:17:12.825Z,17.88
2023-04-17T04:19:43.793Z,16.95
2023-04-17T04:22:14.028Z,17.00
2023-04-17T04:24:53.850Z,19.83
2023-04-17T04:27:33.090Z,19.27
2023-04-17T04:30:04.990Z,18.90
2023-04-17T04:32:39.061Z,21.48
2023-04-17T04:35:10.144Z,19.23
2023-04-17T04:37:40.070Z,21.58
2023-04-17T04:40:13.075Z,16.67
2023-04-17T04:42:49.994Z,19.25
2023-04-17T04:45:30.588Z,16.00
2023-04-17T04:48:00.952Z,21.30
2023-04-17T04:50:31.204Z,17.15
2023-04-17T04:53:01.369Z,21.05
2023-04-17T04:55:42.000Z,20.13
2023-04-17T04:58:15.093Z,23.70
2023-04-17T05:00:46.505Z,18.52
2023-04-17T05:03:23.578Z,22.15
2023-04-17T05:05:54.433Z,21.02
2023-04-17T05:08:28.379Z,19.77
2023-04-17T05:11:06.733Z,18.30
2023-04-17T05:13:39.301Z,22.58
2023-04-17T05:16:12.529Z,20.80
2023-04-17T05:18:44.338Z,19.88
2023-04-17T05:21:17.404Z,22.92
2023-04-17T05:23:49.618Z,21.40
2023-04-17T05:26:22.154Z,26.55
2023-04-17T05:28:54.906Z,18.23
2023-04-17T05:31:28.706Z,24.10
2023-04-17T05:33:59.434Z,22.33
2023-04-17T05:36:31.736Z,24.15
2023-04-17T05:39:04.375Z,25.65
2023-04-17T05:41:34.076Z,24.55
2023-04-17T05:44:06.852Z,22.65
2023-04-17T05:46:36.659Z,24.38
2023-04-17T05:49:07.812Z,26.27
2023-04-17T05:51:37.512Z,28.80
2023-04-17T05:54:07.221Z,26.33
2023-04-17T05:56:37.272Z,34.75
2023-04-17T05:59:09.655Z,31.70
2023-04-17T06:01:40.426Z,29.30
2023-04-17T06:04:10.539Z,29.95
2023-04-17T06:06:40.504Z,26.95
2023-04-17T06:09:11.676Z,27.20
2023-04-17T06:11:41.586Z,27.23
2023-04-17T06:14:14.122Z,27.67
2023-04-17T06:16:43.900Z,27.17
2023-04-17T06:19:13.942Z,30.58
2023-04-17T06:21:43.850Z,29.13
2023-04-17T06:24:13.617Z,30.02
2023-04-17T06:26:48.354Z,30.88
2023-04-17T06:29:21.228Z,27.90
2023-04-17T06:31:51.770Z,34.00
2023-04-17T06:34:24.067Z,38.30
2023-04-17T06:36:53.864Z,29.50
2023-04-17T06:39:23.849Z,31.95
2023-04-17T06:41:54.319Z,34.55
2023-04-17T06:44:32.226Z,41.70
2023-04-17T06:47:04.986Z,35.75
2023-04-17T06:49:34.973Z,36.00
2023-04-17T06:52:04.672Z,31.48
2023-04-17T06:54:34.351Z,28.30
2023-04-17T06:57:06.474Z,37.65
2023-04-17T06:59:38.786Z,38.78
2023-04-17T07:02:08.684Z,31.55
2023-04-17T07:04:38.472Z,38.35
2023-04-17T07:07:08.226Z,32.65
2023-04-17T07:09:37.942Z,33.72
2023-04-17T07:12:07.663Z,39.92
2023-04-17T07:14:40.881Z,32.05
2023-04-17T07:17:10.635Z,33.40
2023-04-17T07:19:41.058Z,30.42
2023-04-17T07:22:10.730Z,32.63
2023-04-17T07:24:40.538Z,37.72
2023-04-17T07:27:10.276Z,34.40
2023-04-17T07:29:42.637Z,36.63
2023-04-17T07:32:13.417Z,34.95
2023-04-17T07:34:43.701Z,39.55
2023-04-17T07:37:13.400Z,38.70
2023-04-17T07:39:43.099Z,36.50
2023-04-17T07:42:12.818Z,38.42
2023-04-17T07:44:45.193Z,36.67
2023-04-17T07:47:14.973Z,37.45
2023-04-17T07:49:49.222Z,42.05
2023-04-17T07:52:19.274Z,43.28
2023-04-17T07:54:48.972Z,38.90
2023-04-17T07:57:18.631Z,40.83
2023-04-17T07:59:50.996Z,40.92
2023-04-17T08:02:22.578Z,35.92
2023-04-17T08:04:52.703Z,40.17
2023-04-17T08:07:22.489Z,35.75
2023-04-17T08:09:52.195Z,35.38
2023-04-17T08:12:21.980Z,36.42
2023-04-17T08:14:54.285Z,31.20
2023-04-17T08:17:26.413Z,37.92
2023-04-17T08:19:57.794Z,46.95
2023-04-17T08:22:28.899Z,44.25
2023-04-17T08:25:00.184Z,40.22
2023-04-17T08:27:29.873Z,44.97
2023-04-17T08:30:02.158Z,45.30
2023-04-17T08:32:34.202Z,45.08
2023-04-17T08:35:04.337Z,41.55
2023-04-17T08:37:36.315Z,45.08
2023-04-17T08:40:13.429Z,42.13
2023-04-17T08:42:48.153Z,48.05
2023-04-17T08:45:21.104Z,40.28
2023-04-17T08:47:50.800Z,34.67
2023-04-17T08:50:22.267Z,36.05
2023-04-17T08:52:52.927Z,32.13
2023-04-17T08:55:23.919Z,34.22
2023-04-17T08:57:57.300Z,35.53
2023-04-17T09:00:31.251Z,43.17
2023-04-17T09:03:01.832Z,39.50
2023-04-17T09:05:33.708Z,36.55
2023-04-17T09:08:10.631Z,38.38
2023-04-17T09:10:40.804Z,36.90
2023-04-17T09:13:12.397Z,36.67
2023-04-17T09:15:45.001Z,26.42
2023-04-17T09:18:24.810Z,29.52
2023-04-17T09:20:54.504Z,29.13
2023-04-17T09:23:24.483Z,29.27
2023-04-17T09:26:08.551Z,27.77
2023-04-17T09:28:39.879Z,34.72
2023-04-17T09:31:28.218Z,25.35
2023-04-17T09:34:01.591Z,26.00
2023-04-17T09:36:31.703Z,28.55
2023-04-17T09:39:02.489Z,32.15
2023-04-17T09:41:32.731Z,29.80
2023-04-17T09:44:05.701Z,28.00
2023-04-17T09:46:40.806Z,33.55
2023-04-17T09:49:11.491Z,25.20
2023-04-17T09:51:41.828Z,29.65
2023-04-17T09:54:13.069Z,30.58
2023-04-17T09:56:43.137Z,26.85
2023-04-17T09:59:13.056Z,25.38
2023-04-17T10:01:45.457Z,29.40
2023-04-17T10:04:15.480Z,22.65
2023-04-17T10:06:45.500Z,27.73
2023-04-17T10:09:15.205Z,28.83
2023-04-17T10:11:46.350Z,29.08
2023-04-17T10:14:18.414Z,19.27
2023-04-17T10:16:51.078Z,24.52
2023-04-17T10:19:27.851Z,25.73
2023-04-17T10:22:12.524Z,25.55
2023-04-17T10:24:42.227Z,24.67
2023-04-17T10:27:26.847Z,23.08
2023-04-17T10:29:56.931Z,22.63
2023-04-17T10:32:29.598Z,20.88
2023-04-17T10:35:00.762Z,25.25
2023-04-17T10:37:45.787Z,26.38
2023-04-17T10:40:21.094Z,20.20
2023-04-17T10:43:04.960Z,19.80
2023-04-17T10:45:49.747Z,18.67
2023-04-17T10:48:28.481Z,26.98
2023-04-17T10:50:58.529Z,19.92
2023-04-17T10:53:43.424Z,20.25
2023-04-17T10:56:13.982Z,19.13
2023-04-17T10:58:59.571Z,18.58
2023-04-17T11:01:32.022Z,17.55
2023-04-17T11:04:04.539Z,15.60
2023-04-17T11:06:35.138Z,15.18
2023-04-17T11:09:06.737Z,15.25
2023-04-17T11:11:44.284Z,15.73
2023-04-17T11:14:15.302Z,16.83
2023-04-17T11:16:46.290Z,17.92
2023-04-17T11:19:21.544Z,17.33
2023-04-17T11:21:52.285Z,17.02
2023-04-17T11:24:26.452Z,15.05
2023-04-17T11:26:56.743Z,14.43
2023-04-17T11:29:27.333Z,17.85
2023-04-17T11:31:58.323Z,17.65
2023-04-17T11:34:30.912Z,16.20
2023-04-17T11:37:01.928Z,15.07
2023-04-17T11:39:32.864Z,16.90
2023-04-17T11:42:02.587Z,13.40
2023-04-17T11:44:32.378Z,15.38
2023-04-17T11:47:02.201Z,16.23
2023-04-17T11:49:35.633Z,18.38
2023-04-17T11:52:05.773Z,19.30
2023-04-17T11:54:38.166Z,18.75
2023-04-17T11:57:09.057Z,17.50
2023-04-17T11:59:39.620Z,17.25
2023-04-17T12:02:10.159Z,17.50
2023-04-17T12:04:42.833Z,18.23
2023-04-17T12:07:24.385Z,18.38
2023-04-17T12:09:57.881Z,19.88
2023-04-17T12:12:27.678Z,21.25
2023-04-17T12:14:59.222Z,19.92
2023-04-17T12:17:28.993Z,23.55
2023-04-17T12:20:04.092Z,17.70
2023-04-17T12:22:33.810Z,19.25
2023-04-17T12:25:03.754Z,16.38
2023-04-17T12:27:38.262Z,19.73
2023-04-17T12:30:08.786Z,19.50
2023-04-17T12:32:39.649Z,20.85
2023-04-17T12:35:12.545Z,18.02
2023-04-17T12:37:42.281Z,19.85
2023-04-17T12:40:13.007Z,21.38
2023-04-17T12:42:49.194Z,17.67
2023-04-17T12:45:20.287Z,16.63
2023-04-17T12:47:50.067Z,21.58
2023-04-17T12:50:22.488Z,17.42
2023-04-17T12:52:52.169Z,19.05
2023-04-17T12:55:22.071Z,21.77
2023-04-17T12:57:51.745Z,18.13
2023-04-17T13:00:22.324Z,17.63
2023-04-17T13:02:52.080Z,19.98
2023-04-17T13:05:24.570Z,16.77
2023-04-17T13:07:54.300Z,19.13
2023-04-17T13:10:23.981Z,21.48
2023-04-17T13:12:53.631Z,16.60
2023-04-17T13:15:23.352Z,16.45
2023-04-17T13:17:53.137Z,21.30
2023-04-17T13:20:25.508Z,18.95
2023-04-17T13:22:55.842Z,22.98
2023-04-17T13:25:26.517Z,24.08
2023-04-17T13:27:56.202Z,21.63
2023-04-17T13:30:26.501Z,20.02
2023-04-17T13:32:56.275Z,21.88
2023-04-17T13:35:28.572Z,21.90
2023-04-17T13:38:01.105Z,21.65
2023-04-17T13:40:30.894Z,22.77
2023-04-17T13:43:00.633Z,23.27
2023-04-17T13:45:30.360Z,28.40
2023-04-17T13:48:00.506Z,25.92
2023-04-17T13:50:32.943Z,20.67
2023-04-17T13:53:02.639Z,21.95
2023-04-17T13:55:32.313Z,22.25
2023-04-17T13:58:01.998Z,24.73
2023-04-17T14:00:31.670Z,29.48
2023-04-17T14:03:01.444Z,159.65
2023-04-17T14:05:33.855Z,99.18
2023-04-17T14:08:03.680Z,58.55
2023-04-17T14:10:33.382Z,48.08
2023-04-17T14:13:03.212Z,36.50
2023-04-17T14:15:32.904Z,41.10
2023-04-17T14:18:02.844Z,24.65
2023-04-17T14:20:35.210Z,39.60
2023-04-17T14:23:04.870Z,61.15
2023-04-17T14:25:34.566Z,44.13
2023-04-17T14:28:04.234Z,43.45
2023-04-17T14:30:33.935Z,47.72
2023-04-17T14:33:03.990Z,62.67
2023-04-17T14:35:36.403Z,41.50
2023-04-17T14:38:06.214Z,37.72
2023-04-17T14:40:36.143Z,32.17
2023-04-17T14:43:05.846Z,35.92
2023-04-17T14:45:36.895Z,48.20
2023-04-17T14:48:06.814Z,32.20
2023-04-17T14:50:39.278Z,55.25
2023-04-17T14:53:08.925Z,39.65
2023-04-17T14:55:38.576Z,38.83
2023-04-17T14:58:08.238Z,76.13
2023-04-17T15:00:38.597Z,64.78
2023-04-17T15:03:08.490Z,80.15
2023-04-17T15:05:40.874Z,65.57
2023-04-17T15:08:10.576Z,98.90
2023-04-17T15:10:50.592Z,50.42
2023-04-17T15:13:21.167Z,44.80
2023-04-17T15:15:50.872Z,43.05
2023-04-17T15:18:20.738Z,36.30
2023-04-17T15:20:53.150Z,22.02
2023-04-17T15:23:23.032Z,21.90
2023-04-17T15:25:54.274Z,24.33
2023-04-17T15:28:24.015Z,22.23
2023-04-17T15:30:53.682Z,22.08
2023-04-17T15:33:23.381Z,19.27
2023-04-17T15:35:58.744Z,23.27
2023-04-17T15:38:28.708Z,20.65
2023-04-17T15:40:59.167Z,21.98
2023-04-17T15:43:29.288Z,22.25
2023-04-17T15:45:59.787Z,20.40
2023-04-17T15:48:29.528Z,28.15
2023-04-17T15:51:01.845Z,28.65
2023-04-17T15:53:31.518Z,21.27
2023-04-17T15:56:01.224Z,29.98
2023-04-17T15:58:30.880Z,37.15
2023-04-17T16:01:00.564Z,24.73
2023-04-17T16:03:30.383Z,28.77
2023-04-17T16:06:02.750Z,20.13
2023-04-17T16:08:32.469Z,19.88
2023-04-17T16:11:02.469Z,20.83
2023-04-17T16:13:32.168Z,21.90
2023-04-17T16:16:01.912Z,21.70
2023-04-17T16:18:31.676Z,20.48
2023-04-17T16:21:03.982Z,19.80
2023-04-17T16:23:33.648Z,20.08
2023-04-17T16:26:03.328Z,22.05
2023-04-17T16:28:33.025Z,22.20
2023-04-17T16:31:17.705Z,23.48
2023-04-17T16:33:47.380Z,19.42
2023-04-17T16:36:19.698Z,20.73
2023-04-17T16:38:49.353Z,19.55
2023-04-17T16:41:19.039Z,21.45
2023-04-17T16:43:48.825Z,24.83
2023-04-17T16:46:23.952Z,23.90
2023-04-17T16:48:58.276Z,21.55
2023-04-17T16:51:31.140Z,21.65
2023-04-17T16:54:00.853Z,22.50
2023-04-17T16:56:30.547Z,19.48
2023-04-17T16:59:00.218Z,19.90
2023-04-17T17:01:30.003Z,19.25
2023-04-17T17:03:59.790Z,21.77
2023-04-17T17:06:32.105Z,27.65
2023-04-17T17:09:01.808Z,20.88
2023-04-17T17:11:31.531Z,21.90
2023-04-17T17:14:01.240Z,22.83
2023-04-17T17:16:31.082Z,22.75
2023-04-17T17:19:00.818Z,23.65
2023-04-17T17:21:33.111Z,39.60
2023-04-17T17:24:02.865Z,30.52
2023-04-17T17:26:32.519Z,23.17
2023-04-17T17:29:02.181Z,22.73
2023-04-17T17:31:31.864Z,29.77
2023-04-17T17:34:16.772Z,25.67
2023-04-17T17:36:54.875Z,26.20
2023-04-17T17:39:24.737Z,18.98
2023-04-17T17:41:56.044Z,21.40
2023-04-17T17:44:25.744Z,19.45
2023-04-17T17:46:55.550Z,28.63
2023-04-17T17:49:25.224Z,36.40
2023-04-17T17:51:57.494Z,51.45
2023-04-17T17:54:27.189Z,25.20
2023-04-17T17:56:56.892Z,41.28
2023-04-17T17:59:26.972Z,35.03
2023-04-17T18:01:57.589Z,79.03
2023-04-17T18:04:27.896Z,28.42
2023-04-17T18:07:00.415Z,50.83
2023-04-17T18:09:30.137Z,49.38
2023-04-17T18:11:59.907Z,35.92
2023-04-17T18:14:29.580Z,36.17
2023-04-17T18:16:59.295Z,28.73
2023-04-17T18:19:28.961Z,26.05
2023-04-17T18:22:01.260Z,22.15
2023-04-17T18:24:31.979Z,21.00
2023-04-17T18:27:02.581Z,22.92
2023-04-17T18:29:32.323Z,19.42
2023-04-17T18:32:02.002Z,14.93
2023-04-17T18:34:31.720Z,15.65
2023-04-17T18:37:04.129Z,16.30
2023-04-17T18:39:33.826Z,14.55
2023-04-17T18:42:03.552Z,17.40
2023-04-17T18:44:33.256Z,15.38
2023-04-17T18:47:02.984Z,12.43
2023-04-17T18:49:32.746Z,15.50
2023-04-17T18:52:05.731Z,18.63
2023-04-17T18:54:35.504Z,26.23
2023-04-17T18:57:05.188Z,20.60
2023-04-17T18:59:34.876Z,19.48
2023-04-17T19:02:04.626Z,19.95
2023-04-17T19:04:34.361Z,17.80
2023-04-17T19:07:06.657Z,18.50
2023-04-17T19:09:36.324Z,17.30
2023-04-17T19:12:06.112Z,16.80
2023-04-17T19:14:35.791Z,21.45
2023-04-17T19:17:05.720Z,17.10
2023-04-17T19:19:35.424Z,17.27
2023-04-17T19:22:07.711Z,14.73
2023-04-17T19:24:37.436Z,14.27
2023-04-17T19:27:07.165Z,14.68
2023-04-17T19:29:37.088Z,16.52
2023-04-17T19:32:07.027Z,14.52
2023-04-17T19:34:36.696Z,30.55
2023-04-17T19:37:08.957Z,36.30
2023-04-17T19:39:38.690Z,19.85
2023-04-17T19:42:08.647Z,62.10
2023-04-17T19:44:38.371Z,37.38
2023-04-17T19:47:08.049Z,23.95
2023-04-17T19:49:38.049Z,29.88
2023-04-17T19:52:10.413Z,32.33
2023-04-17T19:54:40.730Z,29.90
2023-04-17T19:57:10.394Z,26.00
2023-04-17T19:59:40.382Z,29.33
2023-04-17T20:02:10.386Z,33.25
2023-04-17T20:04:40.176Z,24.33
2023-04-17T20:07:12.569Z,35.60
2023-04-17T20:09:42.296Z,41.13
2023-04-17T20:12:12.229Z,27.23
2023-04-17T20:14:41.904Z,38.88
2023-04-17T20:17:11.712Z,43.88
2023-04-17T20:19:41.465Z,46.88
2023-04-17T20:22:13.753Z,32.60
2023-04-17T20:24:43.437Z,30.38
2023-04-17T20:27:13.173Z,31.08
2023-04-17T20:29:42.850Z,26.95
2023-04-17T20:32:12.544Z,28.55
2023-04-17T20:34:42.507Z,32.05
2023-04-17T20:37:14.769Z,27.20
2023-04-17T20:39:44.475Z,24.52
2023-04-17T20:42:15.563Z,27.85
2023-04-17T20:44:45.247Z,31.05
2023-04-17T20:47:14.913Z,29.13
2023-04-17T20:49:44.594Z,36.28
2023-04-17T20:52:16.898Z,29.15
2023-04-17T20:54:46.604Z,22.33
2023-04-17T20:57:16.369Z,32.10
2023-04-17T20:59:46.095Z,30.92
2023-04-17T21:02:16.478Z,28.25
2023-04-17T21:04:46.657Z,27.73
2023-04-17T21:07:19.196Z,29.17
2023-04-17T21:09:48.876Z,30.27
2023-04-17T21:12:18.534Z,28.98
2023-04-17T21:14:48.213Z,25.98
2023-04-17T21:17:17.904Z,29.00
2023-04-17T21:19:47.616Z,27.90
2023-04-17T21:22:19.947Z,31.92
2023-04-17T21:24:49.642Z,27.33
2023-04-17T21:27:19.338Z,27.83
2023-04-17T21:29:49.033Z,35.22
2023-04-17T21:32:18.747Z,32.55
2023-04-17T21:34:48.452Z,30.70
2023-04-17T21:37:20.776Z,30.15
2023-04-17T21:39:50.475Z,27.20
2023-04-17T21:42:20.149Z,36.83
2023-04-17T21:44:49.837Z,31.70
2023-04-17T21:47:19.767Z,26.33
2023-04-17T21:49:50.076Z,34.95
2023-04-17T21:52:22.371Z,31.75
2023-04-17T21:54:52.050Z,33.13
2023-04-17T21:57:21.734Z,26.58
2023-04-17T21:59:51.472Z,29.95
2023-04-17T22:02:21.220Z,27.73
2023-04-17T22:04:51.015Z,29.27
2023-04-17T22:07:23.864Z,29.52
2023-04-17T22:09:53.567Z,32.08
2023-04-17T22:12:23.348Z,30.70
2023-04-17T22:14:53.087Z,31.35
2023-04-17T22:17:22.831Z,31.67
2023-04-17T22:19:52.588Z,26.73
2023-04-17T22:22:24.956Z,34.42
2023-04-17T22:24:54.809Z,36.33
2023-04-17T22:27:24.493Z,25.73
2023-04-17T22:29:54.218Z,33.35
2023-04-17T22:32:23.956Z,33.65
2023-04-17T22:34:53.725Z,33.17
2023-04-17T22:37:26.054Z,30.80
2023-04-17T22:39:55.764Z,34.72
2023-04-17T22:42:25.480Z,32.88
2023-04-17T22:44:55.173Z,33.88
2023-04-17T22:47:24.923Z,26.30
2023-04-17T22:49:54.727Z,28.05
2023-04-17T22:52:27.076Z,30.13
2023-04-17T22:54:57.049Z,23.67
2023-04-17T22:57:26.767Z,30.48
2023-04-17T22:59:56.466Z,27.77
2023-04-17T23:02:26.239Z,29.48
2023-04-17T23:04:56.038Z,30.52
2023-04-17T23:07:28.418Z,29.10
2023-04-17T23:10:21.836Z,26.42
2023-04-17T23:12:51.597Z,26.95
2023-04-17T23:15:21.308Z,28.52
2023-04-17T23:17:51.066Z,28.08
2023-04-17T23:20:20.895Z,29.20
2023-04-17T23:22:53.253Z,30.73
2023-04-17T23:25:22.969Z,21.17
2023-04-17T23:27:52.622Z,25.63
2023-04-17T23:30:22.390Z,32.03
2023-04-17T23:32:53.874Z,25.70
2023-04-17T23:35:23.732Z,23.40
2023-04-17T23:37:56.198Z,25.20
2023-04-17T23:40:26.557Z,23.23
2023-04-17T23:42:56.293Z,27.33
2023-04-17T23:45:26.120Z,20.85
2023-04-17T23:47:55.824Z,21.92
2023-04-17T23:50:26.212Z,25.63
2023-04-17T23:52:58.583Z,23.50
2023-04-17T23:55:28.768Z,24.98
2023-04-17T23:58:00.651Z,21.63
